»·PEaware :: N647KQ CYCG-KSZT

N647KQ :: CYCG-KSZT

FLIGHT INFORMATION

Flight Status: Arrived
Operator: Privately registered:
United States
More flights under this callsign
Pilot: Logan D. (20254)
Aircraft: Unknown
(KODI)
More flights by this aircraft type
Origin: CYCG Castlegar
Canada
Destination: KSZT Sandpoint
United States
More flights between these airports :: More routes between these airports
Route:
File this flight plan on PilotEdge
Remarks:
Altitude:
(Current/Filed)
7,500ft
Speed:
(Current/Filed)
170kts
Departed: 28-Jun-20 08:10 AM
Arrived: 28-Jun-20 08:54 AM
Distance/Time
Traveled:
73nm/0:44
Distance/Time
To Go:
Arrived

Flight Plot

Page will automatically refresh every two minutes.


Map Options




Map Legend


Flown Route
Filed Route
Departure Airport
Arrival Airport
Navaid (VOR, NDB)
Fix

Horizontal Profiles

Position Reports

Time Latitude Longitude Heading Altitude Ground
Speed
28-Jun-20 07:44 49.300970 -117.636298 166 1629ft 0kts
28-Jun-20 07:45 49.300970 -117.636298 166 1629ft 0kts
28-Jun-20 07:46 49.300970 -117.636298 166 1629ft 0kts
28-Jun-20 07:47 49.300970 -117.636298 166 1629ft 0kts
28-Jun-20 07:48 49.300970 -117.636298 166 1629ft 0kts
28-Jun-20 07:48 49.300970 -117.636298 166 1629ft 0kts
28-Jun-20 07:50 49.300970 -117.636298 166 1629ft 0kts
28-Jun-20 07:51 49.300970 -117.636298 166 1629ft 0kts
28-Jun-20 07:51 49.300970 -117.636298 166 1629ft 0kts
28-Jun-20 07:53 49.300970 -117.636298 166 1629ft 0kts
28-Jun-20 07:53 49.300970 -117.636298 166 1629ft 0kts
28-Jun-20 07:55 49.300970 -117.636298 166 1629ft 0kts
28-Jun-20 07:55 49.300970 -117.636298 166 1629ft 0kts
28-Jun-20 07:56 49.300970 -117.636298 166 1629ft 0kts
28-Jun-20 07:57 49.300970 -117.636298 166 1629ft 0kts
28-Jun-20 07:58 49.300970 -117.636298 166 1629ft 0kts
28-Jun-20 07:59 49.300970 -117.636298 166 1629ft 0kts
28-Jun-20 08:00 49.300970 -117.636298 166 1629ft 0kts
28-Jun-20 08:01 49.300970 -117.636298 166 1629ft 0kts
28-Jun-20 08:03 49.300970 -117.636298 166 1629ft 0kts
28-Jun-20 08:03 49.300970 -117.636298 166 1629ft 0kts
28-Jun-20 08:04 49.300970 -117.636298 166 1629ft 0kts
28-Jun-20 08:05 49.300514 -117.635819 136 1629ft 5kts
28-Jun-20 08:06 49.296692 -117.634433 152 1629ft 15kts
28-Jun-20 08:07 49.292972 -117.631564 166 1629ft 21kts
28-Jun-20 08:08 49.289336 -117.630591 348 1629ft 0kts
28-Jun-20 08:09 49.310618 -117.634926 358 2281ft 102kts
28-Jun-20 08:10 49.314209 -117.663421 193 3598ft 115kts
28-Jun-20 08:11 49.282605 -117.654447 163 4827ft 118kts
28-Jun-20 08:12 49.248455 -117.642067 163 5747ft 126kts
28-Jun-20 08:13 49.225022 -117.632831 155 6443ft 124kts
28-Jun-20 08:14 49.192383 -117.615120 157 7334ft 131kts
28-Jun-20 08:15 49.153969 -117.594480 158 7327ft 150kts
28-Jun-20 08:16 49.114362 -117.573288 158 7327ft 151kts
28-Jun-20 08:17 49.077163 -117.546735 117 7343ft 146kts
28-Jun-20 08:18 49.057510 -117.491804 113 6912ft 149kts
28-Jun-20 08:19 49.038970 -117.439128 113 6201ft 132kts
28-Jun-20 08:20 49.020583 -117.397896 141 5462ft 114kts
28-Jun-20 08:21 48.990432 -117.368608 135 5341ft 164kts
28-Jun-20 08:22 48.954497 -117.322384 171 5303ft 173kts
28-Jun-20 08:23 48.909514 -117.344105 201 5327ft 170kts
28-Jun-20 08:24 48.864881 -117.368999 201 5325ft 170kts
28-Jun-20 08:25 48.842248 -117.381608 201 5325ft 170kts
28-Jun-20 08:26 48.836341 -117.384895 201 5325ft 170kts
28-Jun-20 08:27 48.789792 -117.383006 167 5326ft 172kts
28-Jun-20 08:28 48.743293 -117.369639 165 5329ft 168kts
28-Jun-20 08:29 48.697640 -117.363989 180 5332ft 163kts
28-Jun-20 08:30 48.652787 -117.366992 177 5334ft 160kts
28-Jun-20 08:31 48.608340 -117.365855 175 5336ft 161kts
28-Jun-20 08:32 48.563235 -117.362803 174 5336ft 162kts
28-Jun-20 08:33 48.518513 -117.357597 169 5336ft 161kts
28-Jun-20 08:34 48.474160 -117.345945 165 5336ft 161kts
28-Jun-20 08:35 48.430379 -117.332196 165 5468ft 155kts
28-Jun-20 08:36 48.386693 -117.318572 165 5491ft 161kts
28-Jun-20 08:37 48.345630 -117.293968 148 5491ft 160kts
28-Jun-20 08:38 48.307166 -117.260237 147 5491ft 160kts
28-Jun-20 08:39 48.268750 -117.226501 147 5491ft 160kts
28-Jun-20 08:40 48.243091 -117.176388 110 5491ft 158kts
28-Jun-20 08:41 48.227666 -117.114445 109 5491ft 158kts
28-Jun-20 08:42 48.212125 -117.052266 109 5491ft 159kts
28-Jun-20 08:43 48.196410 -116.989910 109 5491ft 160kts
28-Jun-20 08:44 48.180479 -116.927048 109 5491ft 160kts
28-Jun-20 08:45 48.164543 -116.864317 109 5491ft 161kts
28-Jun-20 08:46 48.149301 -116.801118 90 5494ft 160kts
28-Jun-20 08:47 48.171407 -116.748782 56 4961ft 145kts
28-Jun-20 08:48 48.193846 -116.698334 53 4359ft 144kts
28-Jun-20 08:49 48.217753 -116.649972 53 3759ft 144kts
28-Jun-20 08:50 48.240679 -116.602712 67 3447ft 129kts
28-Jun-20 08:51 48.257394 -116.570293 341 3337ft 126kts
28-Jun-20 08:52 48.284439 -116.574591 32 2414ft 86kts
28-Jun-20 08:53 48.298398 -116.561242 31 2135ft 14kts
28-Jun-20 08:54 48.300023 -116.561090 216 2135ft 15kts
28-Jun-20 08:55 48.299827 -116.561541 4 2135ft 0kts
28-Jun-20 08:56 48.299827 -116.561541 4 2135ft 0kts
28-Jun-20 08:57 48.299827 -116.561541 4 2135ft 0kts

Navigation Log

Ident Type
Flight plan parsing failed, navigation log unavailable